Weather at Bunbury Airport

Public forecast

Using degrees Celsius for public forecast. Weather courtesy of forecast.io.

Closest aviation weather report (METAR) to Bunbury Airport

Closest report is Perth Jandakot Airport, 77.6 nm (143.7 km) N. Retrieved 2020/10/25 19:30 UTC (8 minutes ago):

YPJT 251930Z AUTO 00000KT 9000 // NCD 16/15 Q1008 RF000/0000

Closest aviation forecast (TAF) to Bunbury Airport

Forecast is more than 6 hours old.

Closest forecast is Perth Jandakot Airport, 77.6 nm (143.7 km) N. Retrieved 2020/10/25 12:00 UTC (8 hours ago):

TAF YPJT 251126Z 2512/2606 20008KT CAVOK FM260100 24014KT CAVOK